SWR21M LSZH-EGLL
Flight info
| Callsign | SWR21M |
|---|---|
| Flight time | 1h 15m |
| Altitude | 36000 |
| Route | VEBIT T10 TORPA DCT REKLA DCT RLP DCT ROTSI DCT KOTUN DCT NINAL DCT ABNUR DCT DIMAL DCT ALESO |
| Aircraft | B77W/H-SDE1E2E3FGHIJ2J3J4J5M1RWXY/LB1D1 |
Departure
| Time | 2026-05-04 16:07 |
|---|---|
| Airport | Zürich Airport (LSZH) |
Arrival
| Time | 2026-05-04 17:23 |
|---|---|
| Airport | London Heathrow Airport (EGLL) |
| Time | Latitude | Longitude | Altitude | Speed | Heading |
|---|---|---|---|---|---|
| 2026-05-04 15:37 | 47.46193 | 8.55283 | 1392 ft | 0 kts | 186° |
| 2026-05-04 15:53 | 47.46200 | 8.55284 | 1392 ft | 2 kts | 183° |
| 2026-05-04 15:53 | 47.46215 | 8.55283 | 1391 ft | 2 kts | 168° |
| 2026-05-04 15:53 | 47.46229 | 8.55277 | 1392 ft | 2 kts | 157° |
| 2026-05-04 15:54 | 47.46243 | 8.55267 | 1391 ft | 2 kts | 146° |
| 2026-05-04 15:54 | 47.46254 | 8.55253 | 1392 ft | 2 kts | 135° |
| 2026-05-04 15:54 | 47.46264 | 8.55236 | 1392 ft | 2 kts | 123° |
| 2026-05-04 15:54 | 47.46271 | 8.55217 | 1392 ft | 2 kts | 112° |
| 2026-05-04 15:55 | 47.46276 | 8.55196 | 1392 ft | 2 kts | 101° |
| 2026-05-04 15:55 | 47.46277 | 8.55174 | 1391 ft | 2 kts | 95° |
| 2026-05-04 15:55 | 47.46278 | 8.55166 | 1391 ft | 0 kts | 95° |
| 2026-05-04 15:58 | 47.46275 | 8.55203 | 1391 ft | 6 kts | 97° |
| 2026-05-04 15:58 | 47.46268 | 8.55296 | 1391 ft | 10 kts | 97° |
| 2026-05-04 15:59 | 47.46260 | 8.55394 | 1391 ft | 9 kts | 97° |
| 2026-05-04 15:59 | 47.46254 | 8.55480 | 1391 ft | 8 kts | 97° |
| 2026-05-04 15:59 | 47.46246 | 8.55576 | 1391 ft | 10 kts | 96° |
| 2026-05-04 15:59 | 47.46239 | 8.55696 | 1392 ft | 12 kts | 96° |
| 2026-05-04 16:00 | 47.46230 | 8.55834 | 1392 ft | 13 kts | 96° |
| 2026-05-04 16:00 | 47.46213 | 8.55957 | 1392 ft | 11 kts | 118° |
| 2026-05-04 16:00 | 47.46166 | 8.56044 | 1392 ft | 10 kts | 135° |
| 2026-05-04 16:00 | 47.46117 | 8.56114 | 1391 ft | 9 kts | 137° |
| 2026-05-04 16:01 | 47.46069 | 8.56180 | 1390 ft | 5 kts | 137° |
| 2026-05-04 16:01 | 47.46064 | 8.56187 | 1390 ft | 0 kts | 137° |
| 2026-05-04 16:03 | 47.46062 | 8.56190 | 1390 ft | 1 kts | 136° |
| 2026-05-04 16:03 | 47.46049 | 8.56220 | 1391 ft | 4 kts | 116° |
| 2026-05-04 16:03 | 47.46043 | 8.56258 | 1391 ft | 2 kts | 88° |
| 2026-05-04 16:04 | 47.46043 | 8.56259 | 1391 ft | 0 kts | 86° |
| 2026-05-04 16:04 | 47.46044 | 8.56264 | 1391 ft | 1 kts | 82° |
| 2026-05-04 16:04 | 47.46056 | 8.56302 | 1391 ft | 5 kts | 54° |
| 2026-05-04 16:05 | 47.46088 | 8.56356 | 1393 ft | 8 kts | 47° |
| 2026-05-04 16:05 | 47.46130 | 8.56420 | 1394 ft | 3 kts | 38° |
| 2026-05-04 16:05 | 47.46144 | 8.56420 | 1394 ft | 0 kts | 318° |
| 2026-05-04 16:06 | 47.46589 | 8.55812 | 1393 ft | 103 kts | 318° |
| 2026-05-04 16:07 | 47.47573 | 8.54466 | 1391 ft | 179 kts | 318° |
| 2026-05-04 16:07 | 47.50880 | 8.50728 | 2457 ft | 221 kts | 332° |
| 2026-05-04 16:08 | 47.52278 | 8.49567 | 2719 ft | 239 kts | 322° |
| 2026-05-04 16:08 | 47.53405 | 8.42545 | 4050 ft | 263 kts | 241° |
| 2026-05-04 16:09 | 47.50849 | 8.38792 | 5194 ft | 270 kts | 201° |
| 2026-05-04 16:09 | 47.47246 | 8.37313 | 6492 ft | 272 kts | 192° |
| 2026-05-04 16:10 | 47.43565 | 8.36107 | 7778 ft | 274 kts | 192° |
| 2026-05-04 16:11 | 47.38435 | 8.32740 | 9520 ft | 286 kts | 232° |
| 2026-05-04 16:11 | 47.37401 | 8.30232 | 10093 ft | 289 kts | 239° |
| 2026-05-04 16:12 | 47.34421 | 8.21832 | 10967 ft | 331 kts | 240° |
| 2026-05-04 16:12 | 47.30999 | 8.12214 | 12035 ft | 372 kts | 241° |
| 2026-05-04 16:13 | 47.28616 | 8.05412 | 13594 ft | 376 kts | 245° |
| 2026-05-04 16:13 | 47.27376 | 7.97964 | 15253 ft | 386 kts | 265° |
| 2026-05-04 16:14 | 47.27829 | 7.90075 | 17002 ft | 392 kts | 276° |
| 2026-05-04 16:14 | 47.28619 | 7.82046 | 18474 ft | 403 kts | 276° |
| 2026-05-04 16:15 | 47.29807 | 7.69653 | 20759 ft | 414 kts | 275° |
| 2026-05-04 16:16 | 47.30805 | 7.61267 | 22075 ft | 426 kts | 283° |
| 2026-05-04 16:16 | 47.33559 | 7.48572 | 23946 ft | 441 kts | 285° |
| 2026-05-04 16:17 | 47.35433 | 7.39953 | 25153 ft | 450 kts | 285° |
| 2026-05-04 16:18 | 47.38298 | 7.26681 | 27007 ft | 459 kts | 284° |
| 2026-05-04 16:18 | 47.39259 | 7.22207 | 27549 ft | 464 kts | 283° |
| 2026-05-04 16:19 | 47.41774 | 7.08330 | 29121 ft | 473 kts | 278° |
| 2026-05-04 16:19 | 47.43169 | 6.98817 | 30364 ft | 474 kts | 278° |
| 2026-05-04 16:20 | 47.45219 | 6.84753 | 32649 ft | 463 kts | 277° |
| 2026-05-04 16:20 | 47.46546 | 6.75585 | 33932 ft | 457 kts | 277° |
| 2026-05-04 16:22 | 47.48924 | 6.52388 | 33999 ft | 454 kts | 271° |
| 2026-05-04 16:23 | 47.50889 | 6.24484 | 34002 ft | 453 kts | 270° |
| 2026-05-04 16:25 | 47.52780 | 5.96721 | 33987 ft | 453 kts | 270° |
| 2026-05-04 16:26 | 47.57220 | 5.79121 | 33981 ft | 479 kts | 302° |
| 2026-05-04 16:26 | 47.64031 | 5.68049 | 33988 ft | 487 kts | 307° |
| 2026-05-04 16:28 | 47.75497 | 5.49601 | 33981 ft | 488 kts | 307° |
| 2026-05-04 16:29 | 47.91500 | 5.23484 | 33983 ft | 491 kts | 306° |
| 2026-05-04 16:31 | 48.02954 | 5.04612 | 33976 ft | 493 kts | 307° |
| 2026-05-04 16:32 | 48.16670 | 4.81833 | 33941 ft | 492 kts | 306° |
| 2026-05-04 16:33 | 48.25799 | 4.66561 | 33944 ft | 493 kts | 306° |
| 2026-05-04 16:34 | 48.32632 | 4.55072 | 33943 ft | 491 kts | 307° |
| 2026-05-04 16:35 | 48.46260 | 4.32006 | 33949 ft | 492 kts | 306° |
| 2026-05-04 16:36 | 48.53014 | 4.20498 | 33954 ft | 491 kts | 306° |
| 2026-05-04 16:37 | 48.59764 | 4.08948 | 33953 ft | 490 kts | 306° |
| 2026-05-04 16:38 | 48.68752 | 3.93488 | 33951 ft | 491 kts | 306° |
| 2026-05-04 16:39 | 48.80570 | 3.74882 | 33952 ft | 494 kts | 311° |
| 2026-05-04 16:40 | 48.90364 | 3.60364 | 33946 ft | 491 kts | 311° |
| 2026-05-04 16:41 | 49.02499 | 3.42153 | 33936 ft | 492 kts | 311° |
| 2026-05-04 16:43 | 49.14619 | 3.23805 | 33928 ft | 490 kts | 311° |
| 2026-05-04 16:43 | 49.21764 | 3.12922 | 33928 ft | 489 kts | 310° |
| 2026-05-04 16:45 | 49.36112 | 2.90922 | 33929 ft | 488 kts | 311° |
| 2026-05-04 16:46 | 49.48069 | 2.72441 | 33930 ft | 488 kts | 311° |
| 2026-05-04 16:47 | 49.57582 | 2.57639 | 33933 ft | 488 kts | 311° |
| 2026-05-04 16:48 | 49.68031 | 2.44202 | 33933 ft | 492 kts | 320° |
| 2026-05-04 16:49 | 49.78883 | 2.31468 | 33935 ft | 489 kts | 319° |
| 2026-05-04 16:50 | 49.89698 | 2.18676 | 33937 ft | 490 kts | 319° |
| 2026-05-04 16:51 | 49.97776 | 2.09067 | 33943 ft | 490 kts | 319° |
| 2026-05-04 16:52 | 50.08558 | 1.96175 | 33938 ft | 488 kts | 319° |
| 2026-05-04 16:53 | 50.16603 | 1.86477 | 33927 ft | 486 kts | 317° |
| 2026-05-04 16:54 | 50.26297 | 1.71934 | 33947 ft | 483 kts | 313° |
| 2026-05-04 16:55 | 50.40683 | 1.49871 | 33962 ft | 483 kts | 313° |
| 2026-05-04 16:56 | 50.52807 | 1.30769 | 33971 ft | 511 kts | 310° |
| 2026-05-04 16:57 | 50.60039 | 1.18564 | 33973 ft | 510 kts | 312° |
| 2026-05-04 16:58 | 50.70018 | 1.02828 | 33969 ft | 509 kts | 313° |
| 2026-05-04 17:00 | 50.84976 | 0.79005 | 33980 ft | 509 kts | 313° |
| 2026-05-04 17:01 | 50.97356 | 0.59095 | 33982 ft | 509 kts | 313° |
| 2026-05-04 17:02 | 51.07251 | 0.43066 | 33986 ft | 508 kts | 313° |
| 2026-05-04 17:02 | 51.12164 | 0.35550 | 33986 ft | 478 kts | 314° |
| 2026-05-04 17:03 | 51.14539 | 0.31949 | 33983 ft | 462 kts | 314° |
| 2026-05-04 17:03 | 51.16800 | 0.28508 | 33993 ft | 446 kts | 313° |
| 2026-05-04 17:03 | 51.21119 | 0.21913 | 33868 ft | 414 kts | 313° |
| 2026-05-04 17:04 | 51.25147 | 0.15732 | 32708 ft | 402 kts | 313° |
| 2026-05-04 17:04 | 51.29181 | 0.09515 | 30990 ft | 404 kts | 313° |
| 2026-05-04 17:05 | 51.33143 | 0.03398 | 29622 ft | 393 kts | 313° |
| 2026-05-04 17:05 | 51.37690 | -0.01185 | 28161 ft | 391 kts | 341° |
| 2026-05-04 17:06 | 51.43066 | -0.01818 | 26484 ft | 394 kts | 11° |
| 2026-05-04 17:06 | 51.45631 | -0.00548 | 25792 ft | 390 kts | 26° |
| 2026-05-04 17:07 | 51.49834 | 0.04743 | 24018 ft | 389 kts | 56° |
| 2026-05-04 17:07 | 51.50784 | 0.07149 | 23612 ft | 382 kts | 66° |
| 2026-05-04 17:07 | 51.51846 | 0.12422 | 22780 ft | 371 kts | 86° |
| 2026-05-04 17:07 | 51.51868 | 0.16466 | 22146 ft | 361 kts | 101° |
| 2026-05-04 17:08 | 51.51230 | 0.20325 | 21486 ft | 352 kts | 117° |
| 2026-05-04 17:08 | 51.48296 | 0.26233 | 20124 ft | 339 kts | 148° |
| 2026-05-04 17:08 | 51.46232 | 0.27915 | 19481 ft | 333 kts | 163° |
| 2026-05-04 17:09 | 51.43967 | 0.28591 | 18710 ft | 333 kts | 179° |
| 2026-05-04 17:09 | 51.41711 | 0.28201 | 17989 ft | 332 kts | 195° |
| 2026-05-04 17:09 | 51.39617 | 0.26783 | 17366 ft | 330 kts | 212° |
| 2026-05-04 17:10 | 51.36586 | 0.21423 | 15985 ft | 329 kts | 246° |
| 2026-05-04 17:10 | 51.36567 | 0.10898 | 14039 ft | 322 kts | 297° |
| 2026-05-04 17:11 | 51.37804 | 0.07941 | 13299 ft | 322 kts | 315° |
| 2026-05-04 17:11 | 51.39525 | 0.05769 | 12851 ft | 312 kts | 333° |
| 2026-05-04 17:11 | 51.43645 | 0.04366 | 11665 ft | 304 kts | 8° |
| 2026-05-04 17:12 | 51.45645 | 0.05244 | 11146 ft | 300 kts | 25° |
| 2026-05-04 17:12 | 51.48620 | 0.09681 | 10115 ft | 295 kts | 62° |
| 2026-05-04 17:13 | 51.48512 | 0.18616 | 9638 ft | 268 kts | 123° |
| 2026-05-04 17:14 | 51.43917 | 0.22446 | 8755 ft | 256 kts | 186° |
| 2026-05-04 17:14 | 51.42215 | 0.21703 | 8445 ft | 251 kts | 207° |
| 2026-05-04 17:14 | 51.39961 | 0.17727 | 7673 ft | 247 kts | 251° |
| 2026-05-04 17:15 | 51.39699 | 0.15032 | 7279 ft | 244 kts | 274° |
| 2026-05-04 17:15 | 51.41018 | 0.10227 | 6982 ft | 241 kts | 301° |
| 2026-05-04 17:16 | 51.41517 | 0.05004 | 6983 ft | 243 kts | 268° |
| 2026-05-04 17:16 | 51.42564 | -0.02210 | 6904 ft | 204 kts | 299° |
| 2026-05-04 17:17 | 51.43234 | -0.04182 | 6693 ft | 203 kts | 299° |
| 2026-05-04 17:17 | 51.45340 | -0.10486 | 4442 ft | 228 kts | 299° |
| 2026-05-04 17:18 | 51.46077 | -0.12741 | 3681 ft | 232 kts | 299° |
| 2026-05-04 17:18 | 51.47023 | -0.17569 | 2504 ft | 224 kts | 261° |
| 2026-05-04 17:19 | 51.46495 | -0.21904 | 2494 ft | 183 kts | 272° |
| 2026-05-04 17:19 | 51.46516 | -0.25869 | 2212 ft | 175 kts | 273° |
| 2026-05-04 17:20 | 51.46517 | -0.29755 | 1767 ft | 174 kts | 273° |
| 2026-05-04 17:20 | 51.46513 | -0.33559 | 1315 ft | 167 kts | 273° |
| 2026-05-04 17:20 | 51.46510 | -0.35416 | 1095 ft | 165 kts | 273° |
| 2026-05-04 17:21 | 51.46502 | -0.39090 | 650 ft | 164 kts | 273° |
| 2026-05-04 17:21 | 51.46499 | -0.42701 | 217 ft | 161 kts | 273° |
| 2026-05-04 17:22 | 51.46489 | -0.44468 | 92 ft | 153 kts | 272° |
| 2026-05-04 17:22 | 51.46489 | -0.45958 | 84 ft | 115 kts | 270° |
| 2026-05-04 17:23 | 51.46511 | -0.47470 | 84 ft | 7 kts | 327° |
| 2026-05-04 17:23 | 51.46553 | -0.47490 | 84 ft | 4 kts | 354° |
| 2026-05-04 17:23 | 51.46601 | -0.47494 | 84 ft | 1 kts | 358° |
| 2026-05-04 17:24 | 51.46606 | -0.47494 | 84 ft | 0 kts | 358° |
| 2026-05-04 17:24 | 51.46614 | -0.47493 | 84 ft | 4 kts | 11° |
| 2026-05-04 17:25 | 51.46642 | -0.47463 | 84 ft | 5 kts | 54° |
| 2026-05-04 17:25 | 51.46655 | -0.47333 | 84 ft | 6 kts | 88° |
| 2026-05-04 17:26 | 51.46656 | -0.47171 | 84 ft | 7 kts | 92° |
| 2026-05-04 17:26 | 51.46656 | -0.46893 | 84 ft | 8 kts | 89° |
| 2026-05-04 17:27 | 51.46658 | -0.46631 | 84 ft | 18 kts | 90° |
| 2026-05-04 17:27 | 51.46659 | -0.46172 | 84 ft | 19 kts | 90° |
| 2026-05-04 17:28 | 51.46659 | -0.45779 | 84 ft | 19 kts | 90° |
| 2026-05-04 17:29 | 51.46663 | -0.45081 | 84 ft | 16 kts | 90° |
| 2026-05-04 17:29 | 51.46734 | -0.44850 | 84 ft | 6 kts | 344° |
| 2026-05-04 17:30 | 51.46829 | -0.44879 | 84 ft | 0 kts | 359° |
| 2026-05-04 17:31 | 51.46841 | -0.44880 | 84 ft | 0 kts | 359° |